IN-0025 weather

Faizabad Airport
Faizabad, Uttar Pradesh, India

Public forecast

Using degrees Celsius for public forecast. Weather courtesy of forecast.io.

METAR (pilot weather report)

Closest report is Chaudhary Charan Singh International Airport, 67.8 nm (125.6 km) W. Retrieved 2019/09/22 09:30 UTC (0 seconds ago):

VILK 220930Z 09006KT 3500 BR BKN020 FEW030CB OVC090 26/25 Q1008 NOSIG

TAF (pilot weather forecast)

Closest forecast is Chaudhary Charan Singh International Airport, 67.8 nm (125.6 km) W. Retrieved 2019/09/22 06:00 UTC (3 hours ago):

TAF VILK 220500Z 2206/2215 08006KT 3000 BR SCT020 OVC090 TEMPO 2206/2210 1500 -TSRA RA SCT018 FEW030CB OVC090 BECMG 2207/2209 09008KT 4500 HZ BR SCT020 SCT025 BKN090 BECMG 2216/2218 09006KT 3000 BR HZ SCT020 BKN090 BECMG 2304/2306 07008KT 4500 HZ BR SCT020 BKN100 TEMPO 2306/2310 1500 -TSRA RA SCT018 FEW030CB OVC090